createdAt,value
2022-12-04T00:01:16.336Z,17.92
2022-12-04T00:03:20.314Z,20.05
2022-12-04T00:05:24.116Z,19.35
2022-12-04T00:07:28.078Z,18.08
2022-12-04T00:09:32.917Z,19.25
2022-12-04T00:11:37.478Z,20.58
2022-12-04T00:13:42.401Z,21.38
2022-12-04T00:15:45.920Z,22.90
2022-12-04T00:17:52.902Z,18.70
2022-12-04T00:19:56.761Z,18.98
2022-12-04T00:22:00.591Z,28.20
2022-12-04T00:24:06.377Z,18.83
2022-12-04T00:26:14.751Z,19.60
2022-12-04T00:28:18.795Z,22.63
2022-12-04T00:30:22.223Z,18.45
2022-12-04T00:32:25.695Z,19.63
2022-12-04T00:34:29.556Z,20.02
2022-12-04T00:36:33.440Z,19.65
2022-12-04T00:38:40.357Z,21.08
2022-12-04T00:40:51.300Z,21.13
2022-12-04T00:42:56.597Z,20.50
2022-12-04T00:45:00.125Z,22.95
2022-12-04T00:47:03.704Z,24.42
2022-12-04T00:49:07.335Z,20.90
2022-12-04T00:51:14.070Z,22.60
2022-12-04T00:53:17.463Z,19.25
2022-12-04T00:55:21.369Z,21.88
2022-12-04T00:57:25.095Z,20.63
2022-12-04T00:59:29.904Z,19.48
2022-12-04T01:01:36.592Z,21.08
2022-12-04T01:03:41.104Z,21.13
2022-12-04T01:05:48.190Z,20.25
2022-12-04T01:07:51.982Z,24.85
2022-12-04T01:09:56.101Z,20.13
2022-12-04T01:11:59.918Z,21.35
2022-12-04T01:14:03.651Z,22.00
2022-12-04T01:16:09.059Z,20.27
2022-12-04T01:18:14.194Z,20.63
2022-12-04T01:20:19.417Z,20.52
2022-12-04T01:22:23.507Z,21.17
2022-12-04T01:24:26.876Z,18.80
2022-12-04T01:26:30.775Z,20.73
2022-12-04T01:28:34.436Z,21.33
2022-12-04T01:30:37.814Z,19.58
2022-12-04T01:32:42.721Z,18.40
2022-12-04T01:34:46.267Z,18.80
2022-12-04T01:36:49.806Z,19.92
2022-12-04T01:38:53.551Z,19.67
2022-12-04T01:40:58.655Z,19.15
2022-12-04T01:43:02.044Z,19.80
2022-12-04T01:45:39.584Z,20.45
2022-12-04T01:47:44.580Z,17.90
2022-12-04T01:49:50.075Z,19.23
2022-12-04T01:51:58.283Z,17.70
2022-12-04T01:54:05.432Z,20.80
2022-12-04T01:56:09.740Z,18.42
2022-12-04T01:58:14.039Z,19.50
2022-12-04T02:00:18.278Z,16.23
2022-12-04T02:02:27.277Z,18.80
2022-12-04T02:04:35.334Z,18.70
2022-12-04T02:06:38.645Z,17.15
2022-12-04T02:08:42.066Z,17.80
2022-12-04T02:10:55.213Z,19.15
2022-12-04T02:13:07.481Z,16.73
2022-12-04T02:15:18.469Z,19.63
2022-12-04T02:17:28.970Z,18.42
2022-12-04T02:20:14.438Z,19.85
2022-12-04T02:22:32.339Z,17.80
2022-12-04T02:24:50.412Z,18.52
2022-12-04T02:27:02.218Z,20.02
2022-12-04T02:29:13.574Z,17.17
2022-12-04T02:31:23.173Z,20.95
2022-12-04T02:33:29.986Z,20.92
2022-12-04T02:35:38.898Z,17.92
2022-12-04T02:37:47.818Z,18.98
2022-12-04T02:39:57.874Z,18.73
2022-12-04T02:42:10.147Z,21.33
2022-12-04T02:44:21.925Z,19.42
2022-12-04T02:46:33.546Z,20.10
2022-12-04T02:48:41.742Z,21.27
2022-12-04T02:50:49.170Z,19.85
2022-12-04T02:52:57.042Z,19.88
2022-12-04T02:55:08.958Z,19.98
2022-12-04T02:57:18.508Z,21.45
2022-12-04T02:59:29.727Z,21.25
2022-12-04T03:01:41.371Z,20.67
2022-12-04T03:03:47.753Z,19.80
2022-12-04T03:05:58.866Z,18.45
2022-12-04T03:08:06.746Z,20.17
2022-12-04T03:10:16.144Z,21.88
2022-12-04T03:12:24.693Z,23.42
2022-12-04T03:14:33.264Z,23.60
2022-12-04T03:16:40.904Z,26.50
2022-12-04T03:18:48.427Z,24.92
2022-12-04T03:21:01.756Z,27.92
2022-12-04T03:23:13.033Z,27.35
2022-12-04T03:25:16.583Z,25.48
2022-12-04T03:27:29.614Z,27.05
2022-12-04T03:29:41.731Z,26.60
2022-12-04T03:31:50.708Z,27.17
2022-12-04T03:33:59.733Z,27.65
2022-12-04T03:36:14.993Z,24.65
2022-12-04T03:38:25.115Z,26.70
2022-12-04T03:40:35.154Z,27.15
2022-12-04T03:42:44.970Z,29.35
2022-12-04T03:44:56.134Z,29.25
2022-12-04T03:47:05.764Z,27.00
2022-12-04T03:49:16.910Z,28.05
2022-12-04T03:51:24.513Z,29.63
2022-12-04T03:53:36.097Z,27.17
2022-12-04T03:55:46.203Z,26.90
2022-12-04T03:57:52.339Z,31.02
2022-12-04T04:00:05.911Z,30.92
2022-12-04T04:02:15.326Z,26.50
2022-12-04T04:04:28.515Z,26.70
2022-12-04T04:06:39.198Z,25.90
2022-12-04T04:08:47.955Z,24.60
2022-12-04T04:10:54.011Z,25.05
2022-12-04T04:13:20.899Z,28.98
2022-12-04T04:15:43.337Z,28.98
2022-12-04T04:18:18.000Z,27.77
2022-12-04T04:20:43.563Z,28.85
2022-12-04T04:23:07.682Z,29.23
2022-12-04T04:25:15.201Z,30.17
2022-12-04T04:27:18.674Z,32.72
2022-12-04T04:29:23.093Z,29.02
2022-12-04T04:31:35.449Z,29.15
2022-12-04T04:33:50.875Z,30.98
2022-12-04T04:35:59.113Z,25.98
2022-12-04T04:38:09.445Z,27.17
2022-12-04T04:40:25.316Z,26.35
2022-12-04T04:42:33.378Z,29.27
2022-12-04T04:44:46.222Z,26.67
2022-12-04T04:46:56.245Z,29.23
2022-12-04T04:49:02.914Z,25.73
2022-12-04T04:51:07.685Z,26.17
2022-12-04T04:53:16.757Z,25.80
2022-12-04T04:55:21.752Z,29.63
2022-12-04T04:57:31.236Z,25.38
2022-12-04T04:59:34.779Z,27.45
2022-12-04T05:01:39.777Z,26.88
2022-12-04T05:03:45.079Z,26.75
2022-12-04T05:05:48.657Z,25.10
2022-12-04T05:07:52.554Z,23.58
2022-12-04T05:09:56.168Z,24.58
2022-12-04T05:11:59.737Z,24.77
2022-12-04T05:14:05.961Z,25.55
2022-12-04T05:16:13.028Z,27.52
2022-12-04T05:18:16.411Z,27.15
2022-12-04T05:20:20.550Z,24.88
2022-12-04T05:22:27.510Z,27.05
2022-12-04T05:24:31.400Z,34.40
2022-12-04T05:26:34.665Z,26.55
2022-12-04T05:28:39.573Z,24.63
2022-12-04T05:30:43.245Z,24.75
2022-12-04T05:32:46.595Z,25.13
2022-12-04T05:34:50.167Z,22.10
2022-12-04T05:36:55.337Z,25.02
2022-12-04T05:38:58.736Z,22.60
2022-12-04T05:41:03.896Z,23.73
2022-12-04T05:43:07.185Z,22.75
2022-12-04T05:45:12.309Z,25.67
2022-12-04T05:47:15.747Z,21.10
2022-12-04T05:49:19.242Z,21.77
2022-12-04T05:51:22.666Z,25.10
2022-12-04T05:53:27.393Z,24.58
2022-12-04T05:55:30.803Z,22.75
2022-12-04T05:57:34.066Z,23.70
2022-12-04T05:59:38.421Z,21.10
2022-12-04T06:01:43.161Z,21.23
2022-12-04T06:03:46.921Z,20.98
2022-12-04T06:05:50.273Z,21.58
2022-12-04T06:07:53.542Z,21.25
2022-12-04T06:09:58.594Z,21.75
2022-12-04T06:12:02.047Z,19.17
2022-12-04T06:14:08.659Z,20.60
2022-12-04T06:16:15.533Z,19.38
2022-12-04T06:18:18.986Z,23.55
2022-12-04T06:20:22.500Z,19.75
2022-12-04T06:22:26.040Z,20.58
2022-12-04T06:24:29.609Z,20.50
2022-12-04T06:26:34.873Z,21.13
2022-12-04T06:28:39.033Z,19.65
2022-12-04T06:30:45.392Z,20.48
2022-12-04T06:32:50.957Z,21.30
2022-12-04T06:34:55.844Z,20.30
2022-12-04T06:36:59.446Z,21.05
2022-12-04T06:39:03.251Z,22.90
2022-12-04T06:41:09.320Z,19.35
2022-12-04T06:43:14.025Z,20.98
2022-12-04T06:45:17.633Z,22.65
2022-12-04T06:47:21.029Z,20.35
2022-12-04T06:49:26.127Z,22.25
2022-12-04T06:51:32.230Z,21.75
2022-12-04T06:53:36.661Z,19.60
2022-12-04T06:55:40.107Z,17.88
2022-12-04T06:57:43.497Z,22.42
2022-12-04T06:59:48.181Z,18.55
2022-12-04T07:01:51.719Z,20.00
2022-12-04T07:03:56.772Z,18.08
2022-12-04T07:06:00.157Z,18.50
2022-12-04T07:08:03.625Z,20.00
2022-12-04T07:10:08.777Z,18.35
2022-12-04T07:12:12.313Z,19.75
2022-12-04T07:14:15.693Z,18.05
2022-12-04T07:16:23.861Z,18.35
2022-12-04T07:18:27.366Z,18.08
2022-12-04T07:20:33.811Z,19.40
2022-12-04T07:22:37.226Z,18.95
2022-12-04T07:24:40.580Z,18.35
2022-12-04T07:26:44.352Z,18.58
2022-12-04T07:28:48.340Z,17.08
2022-12-04T07:30:51.643Z,20.73
2022-12-04T07:32:56.237Z,18.90
2022-12-04T07:34:59.509Z,18.05
2022-12-04T07:37:02.847Z,19.67
2022-12-04T07:39:06.328Z,19.38
2022-12-04T07:41:11.854Z,19.83
2022-12-04T07:43:15.241Z,18.38
2022-12-04T07:45:21.622Z,19.02
2022-12-04T07:47:24.953Z,20.50
2022-12-04T07:49:31.626Z,19.75
2022-12-04T07:51:35.184Z,19.00
2022-12-04T07:53:39.276Z,23.38
2022-12-04T07:55:43.035Z,32.40
2022-12-04T07:57:46.238Z,36.25
2022-12-04T07:59:49.506Z,33.08
2022-12-04T08:01:53.248Z,20.05
2022-12-04T08:03:59.317Z,20.00
2022-12-04T08:06:05.917Z,18.63
2022-12-04T08:08:09.316Z,20.88
2022-12-04T08:10:13.335Z,22.35
2022-12-04T08:12:16.630Z,20.05
2022-12-04T08:14:19.998Z,21.40
2022-12-04T08:16:23.498Z,19.55
2022-12-04T08:18:27.273Z,17.67
2022-12-04T08:20:31.046Z,21.25
2022-12-04T08:22:36.270Z,23.95
2022-12-04T08:24:39.795Z,19.20
2022-12-04T08:26:43.158Z,16.10
2022-12-04T08:28:47.089Z,19.70
2022-12-04T08:30:50.420Z,17.55
2022-12-04T08:32:53.864Z,18.90
2022-12-04T08:34:57.238Z,17.92
2022-12-04T08:37:00.546Z,17.98
2022-12-04T08:39:06.156Z,17.83
2022-12-04T08:41:15.401Z,17.50
2022-12-04T08:43:18.915Z,18.05
2022-12-04T08:45:22.364Z,19.23
2022-12-04T08:47:25.727Z,22.08
2022-12-04T08:49:29.184Z,20.60
2022-12-04T08:51:35.755Z,18.05
2022-12-04T08:53:39.124Z,19.25
2022-12-04T08:55:43.832Z,21.05
2022-12-04T08:57:47.290Z,20.63
2022-12-04T08:59:50.813Z,18.58
2022-12-04T09:01:54.994Z,18.48
2022-12-04T09:03:59.110Z,18.85
2022-12-04T09:06:03.853Z,17.48
2022-12-04T09:08:07.664Z,17.25
2022-12-04T09:10:13.503Z,19.40
2022-12-04T09:12:19.103Z,18.42
2022-12-04T09:14:25.769Z,19.83
2022-12-04T09:16:29.259Z,23.05
2022-12-04T09:18:32.690Z,19.00
2022-12-04T09:20:37.740Z,17.48
2022-12-04T09:23:02.773Z,17.95
2022-12-04T09:25:07.960Z,17.15
2022-12-04T09:27:14.978Z,18.63
2022-12-04T09:29:20.238Z,17.38
2022-12-04T09:31:25.875Z,17.02
2022-12-04T09:33:30.743Z,18.05
2022-12-04T09:35:36.423Z,18.58
2022-12-04T09:37:50.310Z,16.50
2022-12-04T09:39:54.340Z,18.92
2022-12-04T09:42:20.963Z,14.63
2022-12-04T09:44:32.657Z,15.45
2022-12-04T09:46:40.145Z,14.25
2022-12-04T09:48:46.689Z,13.85
2022-12-04T09:50:51.256Z,15.70
2022-12-04T09:52:59.720Z,14.55
2022-12-04T09:55:06.880Z,13.55
2022-12-04T09:57:18.297Z,15.35
2022-12-04T09:59:27.190Z,12.77
2022-12-04T10:01:45.895Z,25.90
2022-12-04T10:03:49.738Z,19.23
2022-12-04T10:06:02.817Z,16.13
2022-12-04T10:08:14.545Z,15.80
2022-12-04T10:10:25.164Z,13.07
2022-12-04T10:12:35.617Z,14.10
2022-12-04T10:15:08.900Z,12.05
2022-12-04T10:17:49.092Z,12.75
2022-12-04T10:20:01.012Z,12.95
2022-12-04T10:22:14.755Z,12.75
2022-12-04T10:24:31.515Z,14.02
2022-12-04T10:26:42.124Z,11.68
2022-12-04T10:28:55.073Z,13.35
2022-12-04T10:31:03.235Z,15.43
2022-12-04T10:33:18.489Z,14.95
2022-12-04T10:35:24.507Z,13.20
2022-12-04T10:37:30.937Z,13.18
2022-12-04T10:39:38.657Z,13.52
2022-12-04T10:41:49.064Z,12.63
2022-12-04T10:43:53.117Z,13.25
2022-12-04T10:45:56.382Z,13.55
2022-12-04T10:48:01.674Z,16.33
2022-12-04T10:50:18.370Z,18.73
2022-12-04T10:52:21.853Z,17.17
2022-12-04T10:54:40.879Z,13.48
2022-12-04T10:56:53.995Z,13.88
2022-12-04T10:59:03.027Z,23.45
2022-12-04T11:01:09.833Z,21.30
2022-12-04T11:03:27.645Z,15.07
2022-12-04T11:05:36.237Z,13.20
2022-12-04T11:07:49.199Z,11.95
2022-12-04T11:10:03.372Z,14.98
2022-12-04T11:12:59.363Z,16.77
2022-12-04T11:15:14.247Z,15.40
2022-12-04T11:17:20.107Z,17.73
2022-12-04T11:19:28.415Z,18.20
2022-12-04T11:21:33.231Z,20.25
2022-12-04T11:23:45.256Z,23.25
2022-12-04T11:25:51.743Z,16.88
2022-12-04T11:27:58.151Z,17.58
2022-12-04T11:30:08.903Z,18.83
2022-12-04T11:32:23.356Z,23.17
2022-12-04T11:34:36.333Z,19.30
2022-12-04T11:36:42.317Z,23.15
2022-12-04T11:38:45.788Z,21.42
2022-12-04T11:40:55.209Z,22.27
2022-12-04T11:43:06.300Z,21.02
2022-12-04T11:45:23.376Z,20.48
2022-12-04T11:47:31.040Z,24.40
2022-12-04T11:49:39.552Z,17.55
2022-12-04T11:52:01.223Z,22.08
2022-12-04T11:54:13.078Z,24.17
2022-12-04T11:56:25.809Z,27.42
2022-12-04T11:59:17.734Z,20.60
2022-12-04T12:01:39.013Z,18.33
2022-12-04T12:03:56.645Z,15.95
2022-12-04T12:06:17.890Z,17.05
2022-12-04T12:08:33.880Z,19.02
2022-12-04T12:10:45.513Z,17.83
2022-12-04T12:12:59.939Z,21.05
2022-12-04T12:15:13.662Z,20.42
2022-12-04T12:17:24.887Z,28.42
2022-12-04T12:20:08.220Z,22.42
2022-12-04T12:22:29.868Z,19.85
2022-12-04T12:24:45.567Z,21.63
2022-12-04T12:27:03.789Z,29.02
2022-12-04T12:29:22.937Z,18.80
2022-12-04T12:31:50.526Z,19.30
2022-12-04T12:33:59.428Z,16.23
2022-12-04T12:36:07.978Z,19.83
2022-12-04T12:38:19.651Z,17.60
2022-12-04T12:40:33.303Z,18.45
2022-12-04T12:42:43.818Z,17.95
2022-12-04T12:44:55.546Z,20.85
2022-12-04T12:47:08.106Z,20.30
2022-12-04T12:49:19.135Z,23.10
2022-12-04T12:51:33.797Z,18.10
2022-12-04T12:53:44.543Z,23.50
2022-12-04T12:55:53.826Z,19.27
2022-12-04T12:58:05.935Z,18.77
2022-12-04T13:00:17.436Z,20.55
2022-12-04T13:02:29.766Z,18.83
2022-12-04T13:04:40.221Z,19.67
2022-12-04T13:06:45.818Z,18.77
2022-12-04T13:09:05.251Z,22.10
2022-12-04T13:11:19.930Z,21.70
2022-12-04T13:13:34.931Z,22.20
2022-12-04T13:15:48.803Z,21.52
2022-12-04T13:17:57.317Z,24.38
2022-12-04T13:20:09.887Z,22.33
2022-12-04T13:22:26.218Z,22.08
2022-12-04T13:25:01.503Z,23.10
2022-12-04T13:27:11.883Z,27.33
2022-12-04T13:29:31.717Z,30.30
2022-12-04T13:31:49.499Z,30.13
2022-12-04T13:34:25.336Z,24.35
2022-12-04T13:36:56.831Z,25.85
2022-12-04T13:39:30.584Z,27.38
2022-12-04T13:41:41.217Z,27.15
2022-12-04T13:43:49.850Z,25.70
2022-12-04T13:45:56.030Z,26.55
2022-12-04T13:48:00.604Z,35.05
2022-12-04T13:50:29.008Z,43.70
2022-12-04T13:52:40.875Z,25.50
2022-12-04T13:54:44.249Z,25.52
2022-12-04T13:57:30.373Z,31.15
2022-12-04T13:59:39.997Z,44.25
2022-12-04T14:01:48.438Z,48.13
2022-12-04T14:03:55.565Z,30.25
2022-12-04T14:06:00.047Z,28.13
2022-12-04T14:08:08.246Z,27.75
2022-12-04T14:10:30.174Z,24.45
2022-12-04T14:12:38.973Z,33.83
2022-12-04T14:14:56.576Z,33.45
2022-12-04T14:17:01.556Z,26.45
2022-12-04T14:19:06.517Z,32.65
2022-12-04T14:21:10.259Z,34.78
2022-12-04T14:23:28.926Z,31.13
2022-12-04T14:25:38.260Z,29.52
2022-12-04T14:27:51.699Z,27.98
2022-12-04T14:29:58.400Z,25.60
2022-12-04T14:32:10.734Z,25.20
2022-12-04T14:34:23.849Z,28.73
2022-12-04T14:36:31.489Z,28.88
2022-12-04T14:38:35.499Z,24.92
2022-12-04T14:40:45.402Z,23.98
2022-12-04T14:42:51.500Z,20.65
2022-12-04T14:44:57.964Z,23.88
2022-12-04T14:47:14.988Z,22.85
2022-12-04T14:49:41.456Z,21.25
2022-12-04T14:51:54.377Z,21.02
2022-12-04T14:54:11.612Z,25.45
2022-12-04T14:56:39.170Z,23.48
2022-12-04T14:58:44.966Z,23.75
2022-12-04T15:00:52.541Z,26.08
2022-12-04T15:03:00.101Z,54.03
2022-12-04T15:05:05.034Z,49.30
2022-12-04T15:07:11.683Z,36.28
2022-12-04T15:09:36.634Z,28.08
2022-12-04T15:12:05.501Z,30.35
2022-12-04T15:14:15.441Z,25.73
2022-12-04T15:16:22.631Z,24.42
2022-12-04T15:18:26.209Z,24.13
2022-12-04T15:20:35.975Z,24.67
2022-12-04T15:22:45.974Z,20.48
2022-12-04T15:24:49.508Z,22.85
2022-12-04T15:26:54.293Z,24.30
2022-12-04T15:29:00.904Z,25.95
2022-12-04T15:31:13.040Z,33.83
2022-12-04T15:33:22.079Z,25.27
2022-12-04T15:35:31.475Z,22.25
2022-12-04T15:37:35.694Z,22.33
2022-12-04T15:39:39.587Z,25.17
2022-12-04T15:41:43.027Z,21.70
2022-12-04T15:43:46.533Z,25.42
2022-12-04T15:45:50.090Z,47.20
2022-12-04T15:47:58.736Z,35.72
2022-12-04T15:50:11.062Z,28.63
2022-12-04T15:52:18.820Z,32.50
2022-12-04T15:54:25.821Z,44.03
2022-12-04T15:56:29.411Z,26.75
2022-12-04T15:58:35.511Z,33.67
2022-12-04T16:00:42.900Z,29.17
2022-12-04T16:02:46.243Z,28.77
2022-12-04T16:04:50.850Z,26.27
2022-12-04T16:06:54.753Z,28.05
2022-12-04T16:09:00.513Z,27.02
2022-12-04T16:11:06.820Z,36.00
2022-12-04T16:13:30.673Z,33.80
2022-12-04T16:15:39.141Z,52.45
2022-12-04T16:17:42.854Z,42.70
2022-12-04T16:19:53.855Z,33.35
2022-12-04T16:21:57.826Z,32.00
2022-12-04T16:24:03.982Z,27.85
2022-12-04T16:26:11.794Z,28.77
2022-12-04T16:28:15.220Z,27.23
2022-12-04T16:30:18.831Z,31.25
2022-12-04T16:32:27.363Z,28.05
2022-12-04T16:34:30.706Z,28.83
2022-12-04T16:36:35.335Z,29.25
2022-12-04T16:38:38.709Z,27.75
2022-12-04T16:40:42.051Z,30.63
2022-12-04T16:42:45.862Z,33.70
2022-12-04T16:44:49.744Z,31.27
2022-12-04T16:46:53.196Z,29.20
2022-12-04T16:48:56.929Z,29.15
2022-12-04T16:51:00.076Z,28.17
2022-12-04T16:53:04.691Z,28.67
2022-12-04T16:55:58.648Z,27.67
2022-12-04T16:58:02.912Z,26.63
2022-12-04T17:00:07.717Z,26.48
2022-12-04T17:02:18.776Z,24.92
2022-12-04T17:04:22.275Z,24.30
2022-12-04T17:06:25.789Z,23.67
2022-12-04T17:08:30.665Z,24.38
2022-12-04T17:10:33.950Z,26.80
2022-12-04T17:12:37.660Z,31.08
2022-12-04T17:14:42.023Z,25.75
2022-12-04T17:16:47.248Z,26.05
2022-12-04T17:18:50.691Z,26.15
2022-12-04T17:20:54.112Z,29.10
2022-12-04T17:22:57.644Z,25.98
2022-12-04T17:25:04.133Z,22.83
2022-12-04T17:27:07.976Z,25.73
2022-12-04T17:29:11.528Z,22.65
2022-12-04T17:31:19.537Z,22.45
2022-12-04T17:33:23.170Z,21.80
2022-12-04T17:35:29.239Z,24.38
2022-12-04T17:37:33.430Z,25.23
2022-12-04T17:39:37.138Z,24.15
2022-12-04T17:41:42.141Z,26.40
2022-12-04T17:43:45.917Z,23.17
2022-12-04T17:45:49.565Z,23.65
2022-12-04T17:47:53.227Z,23.67
2022-12-04T17:49:56.772Z,23.08
2022-12-04T17:52:00.289Z,21.27
2022-12-04T17:54:03.620Z,24.08
2022-12-04T17:56:10.736Z,24.75
2022-12-04T17:58:15.527Z,24.08
2022-12-04T18:00:20.922Z,21.92
2022-12-04T18:02:24.573Z,20.52
2022-12-04T18:04:33.426Z,22.35
2022-12-04T18:06:40.575Z,22.75
2022-12-04T18:08:49.781Z,22.23
2022-12-04T18:10:53.406Z,20.45
2022-12-04T18:12:56.568Z,19.52
2022-12-04T18:15:01.140Z,20.83
2022-12-04T18:17:04.728Z,20.92
2022-12-04T18:19:08.243Z,19.25
2022-12-04T18:21:13.000Z,22.05
2022-12-04T18:23:16.349Z,21.52
2022-12-04T18:25:19.696Z,26.67
2022-12-04T18:27:23.135Z,32.75
2022-12-04T18:29:28.014Z,24.50
2022-12-04T18:31:33.054Z,25.50
2022-12-04T18:33:38.232Z,24.88
2022-12-04T18:35:41.455Z,23.98
2022-12-04T18:37:44.684Z,21.00
2022-12-04T18:39:50.335Z,22.30
2022-12-04T18:41:56.553Z,22.33
2022-12-04T18:44:00.560Z,22.85
2022-12-04T18:46:08.054Z,26.27
2022-12-04T18:48:14.849Z,25.55
2022-12-04T18:50:18.357Z,22.45
2022-12-04T18:52:21.570Z,23.00
2022-12-04T18:54:25.542Z,25.92
2022-12-04T18:56:30.057Z,24.02
2022-12-04T18:58:33.401Z,23.35
2022-12-04T19:00:36.923Z,25.08
2022-12-04T19:02:40.391Z,26.98
2022-12-04T19:04:45.398Z,24.48
2022-12-04T19:06:51.273Z,25.13
2022-12-04T19:08:54.614Z,26.40
2022-12-04T19:10:58.327Z,24.48
2022-12-04T19:13:02.645Z,22.38
2022-12-04T19:15:07.233Z,23.25
2022-12-04T19:17:11.434Z,20.00
2022-12-04T19:19:15.669Z,22.35
2022-12-04T19:21:21.052Z,23.85
2022-12-04T19:23:25.052Z,25.05
2022-12-04T19:25:28.310Z,23.65
2022-12-04T19:27:31.727Z,26.50
2022-12-04T19:29:35.299Z,22.73
2022-12-04T19:31:39.067Z,23.33
2022-12-04T19:33:42.726Z,24.40
2022-12-04T19:35:57.482Z,27.52
2022-12-04T19:38:02.175Z,24.77
2022-12-04T19:40:07.090Z,23.42
2022-12-04T19:42:11.640Z,25.08
2022-12-04T19:44:47.479Z,24.45
2022-12-04T19:46:38.941Z,21.63
2022-12-04T19:48:42.925Z,22.60
2022-12-04T19:50:46.426Z,22.23
2022-12-04T19:52:50.993Z,21.92
2022-12-04T19:54:55.806Z,22.13
2022-12-04T19:56:59.130Z,20.98
2022-12-04T19:59:06.128Z,27.40
2022-12-04T20:01:14.647Z,24.00
2022-12-04T20:03:18.467Z,22.40
2022-12-04T20:05:21.969Z,26.05
2022-12-04T20:07:28.897Z,24.38
2022-12-04T20:09:52.093Z,26.23
2022-12-04T20:11:57.391Z,48.42
2022-12-04T20:14:06.064Z,102.05
2022-12-04T20:16:15.773Z,64.97
2022-12-04T20:18:19.445Z,58.80
2022-12-04T20:20:24.163Z,44.00
2022-12-04T20:22:27.839Z,31.88
2022-12-04T20:24:31.566Z,27.58
2022-12-04T20:26:39.521Z,24.50
2022-12-04T20:28:44.426Z,27.08
2022-12-04T20:30:50.413Z,25.15
2022-12-04T20:32:56.242Z,28.65
2022-12-04T20:34:59.785Z,27.42
2022-12-04T20:37:03.380Z,22.65
2022-12-04T20:39:08.402Z,20.70
2022-12-04T20:41:15.935Z,22.70
2022-12-04T20:43:19.454Z,19.50
2022-12-04T20:45:24.132Z,23.33
2022-12-04T20:47:28.182Z,20.60
2022-12-04T20:49:31.819Z,19.77
2022-12-04T20:51:41.060Z,20.23
2022-12-04T20:53:44.944Z,18.38
2022-12-04T20:55:55.033Z,20.50
2022-12-04T20:57:58.420Z,21.65
2022-12-04T21:00:02.262Z,20.27
2022-12-04T21:02:07.041Z,19.83
2022-12-04T21:04:12.835Z,19.73
2022-12-04T21:06:22.445Z,24.70
2022-12-04T21:08:42.263Z,22.52
2022-12-04T21:10:47.643Z,19.90
2022-12-04T21:13:08.733Z,18.90
2022-12-04T21:15:29.827Z,18.58
2022-12-04T21:17:34.611Z,17.65
2022-12-04T21:19:38.567Z,21.02
2022-12-04T21:21:42.612Z,19.58
2022-12-04T21:23:46.284Z,18.30
2022-12-04T21:25:52.476Z,21.30
2022-12-04T21:27:55.930Z,17.38
2022-12-04T21:30:00.213Z,18.52
2022-12-04T21:32:06.062Z,18.08
2022-12-04T21:34:14.453Z,18.67
2022-12-04T21:36:18.171Z,19.92
2022-12-04T21:38:21.786Z,16.65
2022-12-04T21:40:25.273Z,16.80
2022-12-04T21:42:30.829Z,16.85
2022-12-04T21:44:34.140Z,16.70
2022-12-04T21:46:37.835Z,18.80
2022-12-04T21:48:41.317Z,18.98
2022-12-04T21:50:46.169Z,16.27
2022-12-04T21:52:49.595Z,16.75
2022-12-04T21:54:54.073Z,16.08
2022-12-04T21:57:00.232Z,15.95
2022-12-04T21:59:03.715Z,15.68
2022-12-04T22:01:10.845Z,15.75
2022-12-04T22:03:14.715Z,16.20
2022-12-04T22:05:26.139Z,15.27
2022-12-04T22:07:30.789Z,14.70
2022-12-04T22:09:34.341Z,16.83
2022-12-04T22:11:37.900Z,16.42
2022-12-04T22:13:41.545Z,16.67
2022-12-04T22:15:45.490Z,17.50
2022-12-04T22:17:48.993Z,18.60
2022-12-04T22:19:52.487Z,23.27
2022-12-04T22:21:56.795Z,22.65
2022-12-04T22:24:03.961Z,20.55
2022-12-04T22:26:08.547Z,21.83
2022-12-04T22:28:11.801Z,19.80
2022-12-04T22:30:15.716Z,18.30
2022-12-04T22:32:19.287Z,23.50
2022-12-04T22:34:22.867Z,20.35
2022-12-04T22:36:28.969Z,19.95
2022-12-04T22:38:32.445Z,20.52
2022-12-04T22:40:42.008Z,16.95
2022-12-04T22:42:45.669Z,15.88
2022-12-04T22:44:49.030Z,17.55
2022-12-04T22:46:52.601Z,16.58
2022-12-04T22:48:55.995Z,20.05
2022-12-04T22:51:02.234Z,21.25
2022-12-04T22:53:05.819Z,29.02
2022-12-04T22:55:09.954Z,35.05
2022-12-04T22:57:14.653Z,25.88
2022-12-04T22:59:18.101Z,26.85
2022-12-04T23:01:24.680Z,21.60
2022-12-04T23:03:28.112Z,18.88
2022-12-04T23:05:31.506Z,17.77
2022-12-04T23:07:35.195Z,16.25
2022-12-04T23:09:38.881Z,15.77
2022-12-04T23:11:43.280Z,16.60
2022-12-04T23:13:52.142Z,13.77
2022-12-04T23:15:55.489Z,15.77
2022-12-04T23:17:58.792Z,16.73
2022-12-04T23:20:02.303Z,18.23
2022-12-04T23:22:05.441Z,20.75
2022-12-04T23:24:09.423Z,19.50
2022-12-04T23:26:16.303Z,19.30
2022-12-04T23:28:19.847Z,15.57
2022-12-04T23:30:28.513Z,16.45
2022-12-04T23:32:33.833Z,18.88
2022-12-04T23:34:37.429Z,14.25
2022-12-04T23:36:40.717Z,13.50
2022-12-04T23:38:45.395Z,13.98
2022-12-04T23:40:49.413Z,13.25
2022-12-04T23:42:52.691Z,14.30
2022-12-04T23:44:56.043Z,13.85
2022-12-04T23:47:03.042Z,14.15
2022-12-04T23:49:06.473Z,13.95
2022-12-04T23:51:11.255Z,12.55
2022-12-04T23:53:14.878Z,12.25
2022-12-04T23:55:18.186Z,14.25
2022-12-04T23:57:21.582Z,15.55
2022-12-04T23:59:25.045Z,12.88
